< < Back
Terminal Aerodrome Forecast


Current Version              Previous Versions:   1  2  3  4  5  6  7  8  9  

Terminal Aerodrome Forecast

163
FTUS44 KMRX 251120
TAFCHA
TAF
KCHA 251120Z 2512/2612 00000KT P6SM SCT250
     FM251500 20006KT P6SM FEW060 BKN150
     FM260100 00000KT P6SM SCT150=

Latest METAR

309
SAUS80 KWBC 261600
MTRCHA
METAR KCHA 261553Z COR 26005KT 10SM SCT048 SCT120 29/16 A3018 RMK AO2
SLP210 T02890161


USA.gov is the U.S. government's official web portal to all federal, state and local government web resources and services.